createdAt,value
2024-02-22T00:00:09.992Z,1.02
2024-02-22T00:02:36.689Z,1.10
2024-02-22T00:05:03.239Z,1.10
2024-02-22T00:07:29.921Z,1.20
2024-02-22T00:09:58.261Z,1.30
2024-02-22T00:12:24.998Z,1.10
2024-02-22T00:14:52.309Z,1.00
2024-02-22T00:17:18.843Z,1.10
2024-02-22T00:19:45.594Z,1.00
2024-02-22T00:22:12.240Z,1.15
2024-02-22T00:24:39.365Z,0.90
2024-02-22T00:27:05.785Z,1.10
2024-02-22T00:29:32.259Z,1.00
2024-02-22T00:31:58.957Z,1.00
2024-02-22T00:34:25.558Z,1.10
2024-02-22T00:36:52.074Z,1.00
2024-02-22T00:39:18.662Z,1.10
2024-02-22T00:41:45.427Z,0.95
2024-02-22T00:44:11.889Z,1.00
2024-02-22T00:46:38.370Z,1.10
2024-02-22T00:49:05.230Z,1.00
2024-02-22T00:51:32.100Z,0.90
2024-02-22T00:53:58.646Z,0.95
2024-02-22T00:56:25.159Z,0.80
2024-02-22T00:58:51.694Z,0.90
2024-02-22T01:01:18.461Z,0.90
2024-02-22T01:03:45.071Z,0.90
2024-02-22T01:06:12.670Z,0.70
2024-02-22T01:08:39.210Z,0.80
2024-02-22T01:11:05.796Z,0.70
2024-02-22T01:13:32.587Z,0.65
2024-02-22T01:15:59.154Z,0.80
2024-02-22T01:18:25.818Z,0.85
2024-02-22T01:20:52.382Z,0.70
2024-02-22T01:23:19.049Z,0.80
2024-02-22T01:25:45.587Z,0.77
2024-02-22T01:28:13.867Z,0.90
2024-02-22T01:30:40.590Z,0.85
2024-02-22T01:33:08.915Z,0.68
2024-02-22T01:35:36.155Z,0.80
2024-02-22T01:38:02.569Z,0.70
2024-02-22T01:40:29.075Z,0.80
2024-02-22T01:42:56.256Z,0.80
2024-02-22T01:45:23.042Z,0.80
2024-02-22T01:47:50.577Z,0.60
2024-02-22T01:50:18.774Z,0.80
2024-02-22T01:52:45.569Z,0.80
2024-02-22T01:55:14.415Z,0.60
2024-02-22T01:57:42.056Z,0.90
2024-02-22T02:00:16.786Z,1.00
2024-02-22T02:02:43.539Z,1.00
2024-02-22T02:05:10.086Z,0.80
2024-02-22T02:07:37.643Z,0.85
2024-02-22T02:10:07.232Z,0.90
2024-02-22T02:12:33.730Z,0.80
2024-02-22T02:15:00.175Z,0.80
2024-02-22T02:17:26.596Z,0.95
2024-02-22T02:19:57.679Z,0.90
2024-02-22T02:22:52.168Z,0.90
2024-02-22T02:25:18.772Z,0.85
2024-02-22T02:27:46.552Z,0.95
2024-02-22T02:30:13.607Z,0.90
2024-02-22T02:32:40.218Z,0.70
2024-02-22T02:35:06.910Z,0.75
2024-02-22T02:37:33.480Z,0.70
2024-02-22T02:39:59.941Z,0.70
2024-02-22T02:42:26.519Z,0.70
2024-02-22T02:44:52.951Z,0.80
2024-02-22T02:47:20.342Z,0.65
2024-02-22T02:49:46.839Z,0.70
2024-02-22T02:52:13.365Z,0.70
2024-02-22T02:54:39.747Z,0.80
2024-02-22T02:57:06.175Z,0.57
2024-02-22T02:59:33.044Z,0.60
2024-02-22T03:01:59.487Z,0.68
2024-02-22T03:04:25.989Z,0.60
2024-02-22T03:06:52.576Z,0.50
2024-02-22T03:09:19.015Z,0.60
2024-02-22T03:11:45.943Z,0.70
2024-02-22T03:14:12.948Z,0.70
2024-02-22T03:16:39.839Z,0.60
2024-02-22T03:19:06.904Z,0.60
2024-02-22T03:21:33.373Z,0.60
2024-02-22T03:23:59.964Z,0.70
2024-02-22T03:26:26.345Z,0.60
2024-02-22T03:28:53.007Z,0.77
2024-02-22T03:31:19.945Z,0.70
2024-02-22T03:33:46.641Z,0.75
2024-02-22T03:36:13.178Z,0.70
2024-02-22T03:38:39.840Z,0.80
2024-02-22T03:41:06.623Z,0.85
2024-02-22T03:43:33.657Z,0.80
2024-02-22T03:46:00.655Z,0.80
2024-02-22T03:48:27.813Z,0.75
2024-02-22T03:50:54.354Z,0.90
2024-02-22T03:53:21.006Z,1.02
2024-02-22T03:55:47.795Z,0.90
2024-02-22T03:58:14.450Z,1.00
2024-02-22T04:00:41.329Z,1.10
2024-02-22T04:03:07.855Z,1.23
2024-02-22T04:05:34.648Z,1.33
2024-02-22T04:08:01.205Z,1.40
2024-02-22T04:10:27.656Z,1.48
2024-02-22T04:12:54.085Z,1.80
2024-02-22T04:15:21.902Z,2.00
2024-02-22T04:17:48.463Z,2.20
2024-02-22T04:20:15.346Z,2.10
2024-02-22T04:22:50.506Z,2.42
2024-02-22T04:25:17.806Z,2.47
2024-02-22T04:27:44.497Z,2.80
2024-02-22T04:30:12.771Z,2.85
2024-02-22T04:32:39.453Z,3.17
2024-02-22T04:35:06.327Z,3.22
2024-02-22T04:37:33.880Z,3.47
2024-02-22T04:40:00.493Z,3.95
2024-02-22T04:42:26.896Z,4.25
2024-02-22T04:44:53.325Z,4.68
2024-02-22T04:47:19.775Z,4.65
2024-02-22T04:49:47.386Z,5.07
2024-02-22T04:52:14.983Z,4.93
2024-02-22T04:54:44.826Z,5.65
2024-02-22T04:57:12.601Z,4.88
2024-02-22T04:59:39.327Z,4.75
2024-02-22T05:02:05.889Z,4.70
2024-02-22T05:04:32.432Z,4.35
2024-02-22T05:06:58.988Z,4.18
2024-02-22T05:09:25.650Z,4.45
2024-02-22T05:11:52.418Z,4.35
2024-02-22T05:14:19.031Z,4.18
2024-02-22T05:16:45.581Z,4.47
2024-02-22T05:19:12.200Z,4.65
2024-02-22T05:21:38.735Z,4.60
2024-02-22T05:24:05.577Z,4.40
2024-02-22T05:26:32.086Z,4.20
2024-02-22T05:28:58.692Z,4.63
2024-02-22T05:31:26.666Z,4.45
2024-02-22T05:33:53.738Z,4.10
2024-02-22T05:36:21.474Z,4.03
2024-02-22T05:38:48.582Z,4.50
2024-02-22T05:41:16.129Z,3.78
2024-02-22T05:43:42.896Z,3.55
2024-02-22T05:46:09.430Z,3.40
2024-02-22T05:48:36.037Z,3.75
2024-02-22T05:51:02.746Z,3.30
2024-02-22T05:53:29.373Z,3.15
2024-02-22T05:55:56.053Z,4.10
2024-02-22T05:58:22.546Z,3.22
2024-02-22T06:00:49.432Z,3.75
2024-02-22T06:03:16.276Z,3.53
2024-02-22T06:05:44.310Z,3.45
2024-02-22T06:08:12.846Z,3.60
2024-02-22T06:10:39.637Z,3.80
2024-02-22T06:13:06.380Z,3.30
2024-02-22T06:15:32.818Z,3.72
2024-02-22T06:17:59.557Z,3.75
2024-02-22T06:20:26.585Z,3.65
2024-02-22T06:22:53.486Z,3.20
2024-02-22T06:25:20.726Z,3.10
2024-02-22T06:27:47.286Z,2.83
2024-02-22T06:30:15.529Z,2.83
2024-02-22T06:32:42.525Z,2.65
2024-02-22T06:35:09.903Z,2.40
2024-02-22T06:37:36.548Z,2.90
2024-02-22T06:40:03.659Z,2.15
2024-02-22T06:42:30.116Z,2.30
2024-02-22T06:44:56.798Z,2.45
2024-02-22T06:47:24.215Z,2.50
2024-02-22T06:49:50.772Z,2.25
2024-02-22T06:52:17.271Z,2.45
2024-02-22T06:54:43.768Z,2.47
2024-02-22T06:57:10.285Z,2.47
2024-02-22T06:59:36.688Z,2.20
2024-02-22T07:02:03.863Z,2.78
2024-02-22T07:04:30.587Z,2.50
2024-02-22T07:06:58.375Z,2.40
2024-02-22T07:09:24.851Z,2.70
2024-02-22T07:11:51.478Z,2.40
2024-02-22T07:14:18.173Z,2.40
2024-02-22T07:16:46.251Z,2.60
2024-02-22T07:19:12.990Z,2.70
2024-02-22T07:21:39.778Z,2.38
2024-02-22T07:24:06.464Z,2.20
2024-02-22T07:26:33.048Z,2.22
2024-02-22T07:29:00.293Z,2.10
2024-02-22T07:31:27.306Z,2.22
2024-02-22T07:33:55.077Z,2.20
2024-02-22T07:36:21.696Z,1.98
2024-02-22T07:38:48.484Z,1.90
2024-02-22T07:41:18.107Z,1.95
2024-02-22T07:43:46.131Z,1.85
2024-02-22T07:46:14.425Z,1.80
2024-02-22T07:48:44.206Z,2.67
2024-02-22T07:51:11.396Z,1.90
2024-02-22T07:53:38.841Z,2.20
2024-02-22T07:56:07.082Z,2.17
2024-02-22T07:58:46.477Z,2.10
2024-02-22T08:01:13.542Z,2.10
2024-02-22T08:03:42.072Z,1.90
2024-02-22T08:06:10.415Z,1.40
2024-02-22T08:08:37.983Z,1.80
2024-02-22T08:11:05.255Z,1.90
2024-02-22T08:13:31.855Z,1.70
2024-02-22T08:16:09.325Z,2.10
2024-02-22T08:18:38.078Z,1.95
2024-02-22T08:21:07.584Z,1.55
2024-02-22T08:23:34.318Z,1.40
2024-02-22T08:26:02.761Z,1.90
2024-02-22T08:28:29.992Z,1.20
2024-02-22T08:30:56.694Z,0.85
2024-02-22T08:33:27.150Z,0.80
2024-02-22T08:35:56.311Z,0.70
2024-02-22T08:38:23.091Z,0.50
2024-02-22T08:40:49.723Z,0.30
2024-02-22T08:43:16.210Z,0.35
2024-02-22T08:45:42.663Z,0.30
2024-02-22T08:48:09.315Z,0.20
2024-02-22T08:50:35.996Z,0.25
2024-02-22T08:53:02.583Z,0.22
2024-02-22T08:55:29.337Z,0.30
2024-02-22T08:57:57.753Z,0.20
2024-02-22T09:00:26.487Z,0.30
2024-02-22T09:02:53.060Z,0.40
2024-02-22T09:05:20.456Z,0.30
2024-02-22T09:07:49.240Z,0.32
2024-02-22T09:10:16.304Z,0.30
2024-02-22T09:12:44.710Z,0.30
2024-02-22T09:15:12.815Z,0.20
2024-02-22T09:17:39.592Z,0.30
2024-02-22T09:20:06.744Z,0.50
2024-02-22T09:22:33.847Z,0.28
2024-02-22T09:25:00.420Z,0.30
2024-02-22T09:27:26.938Z,0.30
2024-02-22T09:29:54.991Z,0.40
2024-02-22T09:32:21.674Z,0.30
2024-02-22T09:34:48.895Z,0.40
2024-02-22T09:37:15.481Z,0.40
2024-02-22T09:39:41.980Z,0.30
2024-02-22T09:42:08.857Z,0.28
2024-02-22T09:44:35.591Z,0.32
2024-02-22T09:47:03.548Z,0.30
2024-02-22T09:49:31.433Z,0.30
2024-02-22T09:51:57.983Z,0.30
2024-02-22T09:54:26.122Z,0.20
2024-02-22T09:56:52.749Z,0.30
2024-02-22T09:59:19.522Z,0.30
2024-02-22T10:01:46.652Z,0.30
2024-02-22T10:04:24.919Z,0.20
2024-02-22T10:07:00.102Z,0.30
2024-02-22T10:09:26.643Z,0.30
2024-02-22T10:11:53.546Z,0.20
2024-02-22T10:14:20.201Z,0.30
2024-02-22T10:16:47.089Z,0.30
2024-02-22T10:19:16.055Z,0.20
2024-02-22T10:21:43.679Z,0.30
2024-02-22T10:24:10.130Z,0.30
2024-02-22T10:26:36.764Z,0.30
2024-02-22T10:29:10.535Z,0.30
2024-02-22T10:31:47.461Z,0.30
2024-02-22T10:34:15.409Z,0.30
2024-02-22T10:36:43.281Z,0.30
2024-02-22T10:39:11.240Z,0.30
2024-02-22T10:41:38.346Z,0.38
2024-02-22T10:44:05.679Z,0.35
2024-02-22T10:46:39.014Z,0.40
2024-02-22T10:49:12.894Z,0.52
2024-02-22T10:51:41.139Z,0.60
2024-02-22T10:54:12.808Z,0.52
2024-02-22T10:56:44.885Z,0.55
2024-02-22T10:59:15.903Z,0.60
2024-02-22T11:01:45.069Z,0.65
2024-02-22T11:04:15.095Z,0.50
2024-02-22T11:06:44.865Z,0.40
2024-02-22T11:09:25.444Z,0.40
2024-02-22T11:11:52.874Z,0.38
2024-02-22T11:14:48.868Z,0.30
2024-02-22T11:17:19.563Z,0.30
2024-02-22T11:19:46.470Z,0.20
2024-02-22T11:22:20.606Z,0.28
2024-02-22T11:24:51.045Z,0.20
2024-02-22T11:27:19.085Z,0.30
2024-02-22T11:29:46.230Z,0.40
2024-02-22T11:32:14.507Z,0.30
2024-02-22T11:34:42.125Z,0.30
2024-02-22T11:37:17.793Z,0.20
2024-02-22T11:39:44.906Z,0.30
2024-02-22T11:42:19.746Z,0.50
2024-02-22T11:44:46.912Z,0.52
2024-02-22T11:47:16.682Z,0.30
2024-02-22T11:49:43.842Z,0.30
2024-02-22T11:52:10.753Z,0.40
2024-02-22T11:54:37.851Z,0.30
2024-02-22T11:57:05.025Z,0.30
2024-02-22T11:59:31.890Z,0.30
2024-02-22T12:02:06.233Z,0.30
2024-02-22T12:04:34.401Z,0.30
2024-02-22T12:07:05.196Z,0.40
2024-02-22T12:09:32.694Z,0.40
2024-02-22T12:11:59.392Z,0.40
2024-02-22T12:14:26.056Z,0.40
2024-02-22T12:16:53.768Z,0.32
2024-02-22T12:19:20.492Z,0.57
2024-02-22T12:21:48.256Z,0.32
2024-02-22T12:24:14.863Z,0.40
2024-02-22T12:26:41.360Z,0.50
2024-02-22T12:29:09.110Z,0.30
2024-02-22T12:31:35.827Z,0.30
2024-02-22T12:34:03.430Z,0.30
2024-02-22T12:36:30.109Z,0.50
2024-02-22T12:38:59.842Z,0.52
2024-02-22T12:41:27.144Z,0.40
2024-02-22T12:43:58.332Z,0.40
2024-02-22T12:46:31.091Z,0.40
2024-02-22T12:48:58.077Z,0.40
2024-02-22T12:51:25.466Z,0.32
2024-02-22T12:53:52.180Z,0.30
2024-02-22T12:56:20.119Z,0.73
2024-02-22T12:58:46.990Z,0.35
2024-02-22T13:01:15.657Z,0.38
2024-02-22T13:03:42.600Z,0.40
2024-02-22T13:06:09.984Z,0.40
2024-02-22T13:08:38.777Z,0.30
2024-02-22T13:11:07.608Z,0.40
2024-02-22T13:13:34.217Z,0.43
2024-02-22T13:16:01.688Z,0.30
2024-02-22T13:18:29.025Z,0.38
2024-02-22T13:21:00.630Z,0.28
2024-02-22T13:23:27.456Z,0.38
2024-02-22T13:25:54.049Z,0.30
2024-02-22T13:28:21.155Z,0.40
2024-02-22T13:30:47.569Z,0.50
2024-02-22T13:33:14.404Z,0.40
2024-02-22T13:35:41.134Z,0.88
2024-02-22T13:38:07.702Z,0.38
2024-02-22T13:40:34.267Z,0.30
2024-02-22T13:43:01.083Z,0.30
2024-02-22T13:45:27.720Z,0.30
2024-02-22T13:47:54.382Z,0.60
2024-02-22T13:50:21.099Z,0.30
2024-02-22T13:52:47.921Z,0.50
2024-02-22T13:55:14.495Z,0.30
2024-02-22T13:57:41.379Z,0.30
2024-02-22T14:00:08.600Z,0.40
2024-02-22T14:02:38.965Z,0.40
2024-02-22T14:05:05.695Z,0.40
2024-02-22T14:07:32.627Z,0.40
2024-02-22T14:09:59.510Z,0.40
2024-02-22T14:12:27.249Z,0.40
2024-02-22T14:14:54.285Z,0.30
2024-02-22T14:17:27.522Z,0.43
2024-02-22T14:19:54.214Z,0.50
2024-02-22T14:22:21.283Z,0.47
2024-02-22T14:24:48.942Z,0.32
2024-02-22T14:27:15.649Z,0.45
2024-02-22T14:29:44.636Z,0.40
2024-02-22T14:32:13.254Z,0.40
2024-02-22T14:34:42.080Z,0.50
2024-02-22T14:37:13.364Z,0.70
2024-02-22T14:39:40.033Z,0.50
2024-02-22T14:42:06.869Z,0.50
2024-02-22T14:44:33.491Z,0.50
2024-02-22T14:47:00.192Z,0.50
2024-02-22T14:49:27.197Z,0.50
2024-02-22T14:51:53.714Z,0.50
2024-02-22T14:54:20.199Z,0.50
2024-02-22T14:56:51.309Z,0.40
2024-02-22T14:59:18.754Z,0.40
2024-02-22T15:01:45.929Z,0.40
2024-02-22T15:04:12.666Z,0.50
2024-02-22T15:06:46.133Z,0.50
2024-02-22T15:09:16.734Z,0.40
2024-02-22T15:11:44.951Z,5.82
2024-02-22T15:14:12.892Z,0.90
2024-02-22T15:16:40.312Z,0.50
2024-02-22T15:19:11.886Z,0.50
2024-02-22T15:21:39.305Z,0.57
2024-02-22T15:24:06.706Z,0.50
2024-02-22T15:26:34.346Z,0.50
2024-02-22T15:29:01.102Z,0.60
2024-02-22T15:31:27.686Z,0.50
2024-02-22T15:34:04.618Z,0.40
2024-02-22T15:36:34.374Z,0.60
2024-02-22T15:39:01.319Z,0.60
2024-02-22T15:41:29.700Z,0.50
2024-02-22T15:43:56.879Z,0.50
2024-02-22T15:46:23.524Z,0.50
2024-02-22T15:48:50.521Z,0.60
2024-02-22T15:51:17.021Z,0.60
2024-02-22T15:53:43.609Z,2.15
2024-02-22T15:56:10.468Z,0.50
2024-02-22T15:58:37.199Z,0.60
2024-02-22T16:01:04.175Z,0.70
2024-02-22T16:03:30.974Z,0.60
2024-02-22T16:05:57.846Z,0.40
2024-02-22T16:08:25.149Z,0.40
2024-02-22T16:10:51.854Z,0.60
2024-02-22T16:13:18.479Z,0.50
2024-02-22T16:18:28.311Z,0.68
2024-02-22T16:20:54.921Z,0.55
2024-02-22T16:23:26.903Z,0.68
2024-02-22T16:25:56.337Z,0.90
2024-02-22T16:28:23.145Z,0.80
2024-02-22T16:30:49.696Z,0.95
2024-02-22T16:33:17.594Z,0.82
2024-02-22T16:35:44.405Z,1.10
2024-02-22T16:38:12.201Z,1.20
2024-02-22T16:40:38.816Z,1.10
2024-02-22T16:43:05.501Z,1.30
2024-02-22T16:45:32.081Z,1.17
2024-02-22T16:47:58.677Z,1.35
2024-02-22T16:50:25.402Z,1.50
2024-02-22T16:52:51.976Z,1.30
2024-02-22T16:55:19.652Z,1.33
2024-02-22T16:57:46.057Z,1.20
2024-02-22T17:00:13.260Z,1.20
2024-02-22T17:02:42.008Z,1.10
2024-02-22T17:05:09.090Z,1.40
2024-02-22T17:07:35.636Z,1.20
2024-02-22T17:10:02.054Z,1.70
2024-02-22T17:12:28.487Z,1.48
2024-02-22T17:14:55.161Z,1.52
2024-02-22T17:17:21.768Z,1.40
2024-02-22T17:19:48.419Z,1.60
2024-02-22T17:22:15.112Z,1.38
2024-02-22T17:24:42.255Z,1.30
2024-02-22T17:27:09.689Z,1.48
2024-02-22T17:29:36.642Z,1.55
2024-02-22T17:32:03.319Z,1.55
2024-02-22T17:34:30.011Z,1.60
2024-02-22T17:36:56.584Z,1.70
2024-02-22T17:39:24.025Z,1.73
2024-02-22T17:41:50.996Z,1.83
2024-02-22T17:44:17.510Z,1.60
2024-02-22T17:46:44.093Z,1.63
2024-02-22T17:49:10.559Z,1.88
2024-02-22T17:51:44.325Z,1.80
2024-02-22T17:54:17.057Z,1.75
2024-02-22T17:56:43.949Z,1.70
2024-02-22T17:59:10.530Z,1.60
2024-02-22T18:01:37.050Z,1.50
2024-02-22T18:04:04.918Z,1.60
2024-02-22T18:06:31.330Z,1.55
2024-02-22T18:08:57.800Z,1.77
2024-02-22T18:11:24.402Z,1.52
2024-02-22T18:13:50.947Z,1.42
2024-02-22T18:16:17.641Z,1.30
2024-02-22T18:18:46.131Z,1.38
2024-02-22T18:21:13.672Z,1.27
2024-02-22T18:23:43.129Z,1.20
2024-02-22T18:26:09.716Z,1.10
2024-02-22T18:28:36.284Z,0.75
2024-02-22T18:31:04.927Z,0.68
2024-02-22T18:33:31.531Z,0.50
2024-02-22T18:35:58.412Z,0.70
2024-02-22T18:38:26.390Z,0.30
2024-02-22T18:40:54.685Z,0.93
2024-02-22T18:43:21.514Z,0.63
2024-02-22T18:45:48.142Z,2.75
2024-02-22T18:48:14.812Z,0.68
2024-02-22T18:50:41.345Z,3.45
2024-02-22T18:53:08.766Z,2.00
2024-02-22T18:55:39.414Z,4.45
2024-02-22T18:58:07.569Z,0.98
2024-02-22T19:00:36.824Z,1.40
2024-02-22T19:03:10.558Z,0.90
2024-02-22T19:05:41.016Z,1.45
2024-02-22T19:08:08.315Z,0.60
2024-02-22T19:10:36.091Z,0.65
2024-02-22T19:13:03.818Z,0.60
2024-02-22T19:15:30.314Z,0.73
2024-02-22T19:17:58.176Z,0.68
2024-02-22T19:20:24.786Z,1.15
2024-02-22T19:22:54.461Z,0.98
2024-02-22T19:25:20.995Z,0.68
2024-02-22T19:27:47.705Z,0.80
2024-02-22T19:30:14.916Z,0.60
2024-02-22T19:32:45.154Z,0.70
2024-02-22T19:35:18.826Z,0.77
2024-02-22T19:37:51.982Z,0.70
2024-02-22T19:40:18.690Z,0.73
2024-02-22T19:42:45.968Z,0.57
2024-02-22T19:45:14.001Z,0.70
2024-02-22T19:47:40.848Z,0.50
2024-02-22T19:50:07.775Z,1.00
2024-02-22T19:52:34.267Z,0.77
2024-02-22T19:55:01.283Z,0.90
2024-02-22T19:57:27.838Z,0.77
2024-02-22T19:59:55.251Z,0.90
2024-02-22T20:02:22.358Z,0.60
2024-02-22T20:04:52.072Z,0.70
2024-02-22T20:07:20.179Z,0.60
2024-02-22T20:09:46.758Z,0.90
2024-02-22T20:12:14.346Z,1.10
2024-02-22T20:14:40.991Z,0.90
2024-02-22T20:17:07.671Z,0.90
2024-02-22T20:19:34.239Z,0.98
2024-02-22T20:22:00.979Z,1.00
2024-02-22T20:24:27.578Z,0.90
2024-02-22T20:26:54.345Z,0.98
2024-02-22T20:29:20.923Z,1.00
2024-02-22T20:31:48.038Z,0.70
2024-02-22T20:34:14.749Z,1.00
2024-02-22T20:36:43.134Z,0.95
2024-02-22T20:39:09.911Z,1.20
2024-02-22T20:41:37.731Z,1.58
2024-02-22T20:44:05.091Z,1.60
2024-02-22T20:46:31.901Z,1.40
2024-02-22T20:48:59.188Z,1.40
2024-02-22T20:51:29.253Z,1.50
2024-02-22T20:53:57.012Z,1.55
2024-02-22T20:56:24.306Z,1.23
2024-02-22T20:58:51.323Z,1.50
2024-02-22T21:01:18.568Z,1.20
2024-02-22T21:03:45.356Z,1.57
2024-02-22T21:06:20.245Z,1.05
2024-02-22T21:08:48.303Z,0.88
2024-02-22T21:11:17.020Z,1.00
2024-02-22T21:13:45.454Z,0.90
2024-02-22T21:16:12.708Z,1.10
2024-02-22T21:18:39.763Z,1.25
2024-02-22T21:21:07.744Z,1.10
2024-02-22T21:23:34.777Z,0.70
2024-02-22T21:26:01.791Z,0.98
2024-02-22T21:28:29.346Z,0.80
2024-02-22T21:30:55.992Z,0.90
2024-02-22T21:33:26.288Z,1.10
2024-02-22T21:35:54.536Z,0.97
2024-02-22T21:38:21.126Z,0.90
2024-02-22T21:40:47.696Z,0.77
2024-02-22T21:43:14.280Z,1.00
2024-02-22T21:45:41.013Z,0.80
2024-02-22T21:48:10.878Z,1.23
2024-02-22T21:50:38.605Z,1.30
2024-02-22T21:53:08.174Z,1.02
2024-02-22T21:55:35.691Z,1.10
2024-02-22T21:58:02.621Z,1.30
2024-02-22T22:00:29.378Z,1.30
2024-02-22T22:02:55.984Z,1.00
2024-02-22T22:05:23.422Z,1.20
2024-02-22T22:07:51.101Z,1.20
2024-02-22T22:10:17.702Z,0.60
2024-02-22T22:12:44.227Z,0.37
2024-02-22T22:15:10.952Z,0.30
2024-02-22T22:17:37.524Z,0.30
2024-02-22T22:20:06.723Z,0.40
2024-02-22T22:22:33.293Z,0.57
2024-02-22T22:25:00.517Z,0.30
2024-02-22T22:27:27.028Z,0.47
2024-02-22T22:29:53.659Z,0.50
2024-02-22T22:32:22.008Z,0.40
2024-02-22T22:34:48.541Z,0.30
2024-02-22T22:37:16.455Z,0.40
2024-02-22T22:39:43.226Z,0.40
2024-02-22T22:42:09.913Z,0.50
2024-02-22T22:44:39.976Z,0.40
2024-02-22T22:47:07.001Z,0.40
2024-02-22T22:49:33.849Z,0.40
2024-02-22T22:52:00.447Z,0.50
2024-02-22T22:54:26.878Z,0.47
2024-02-22T22:56:56.176Z,0.50
2024-02-22T22:59:22.783Z,0.47
2024-02-22T23:01:49.387Z,0.53
2024-02-22T23:04:15.867Z,0.67
2024-02-22T23:06:42.467Z,0.63
2024-02-22T23:09:08.906Z,0.70
2024-02-22T23:11:35.405Z,0.73
2024-02-22T23:14:01.901Z,1.00
2024-02-22T23:16:28.711Z,0.70
2024-02-22T23:18:55.190Z,0.73
2024-02-22T23:21:24.125Z,0.80
2024-02-22T23:23:50.669Z,0.70
2024-02-22T23:26:17.200Z,0.73
2024-02-22T23:28:43.992Z,1.00
2024-02-22T23:31:10.480Z,1.00
2024-02-22T23:33:37.207Z,0.90
2024-02-22T23:36:04.008Z,1.00
2024-02-22T23:38:30.560Z,1.00
2024-02-22T23:41:10.371Z,1.07
2024-02-22T23:43:43.979Z,0.80
2024-02-22T23:46:10.532Z,1.20
2024-02-22T23:48:41.877Z,1.00
2024-02-22T23:51:10.131Z,1.07
2024-02-22T23:53:37.287Z,1.10
2024-02-22T23:56:04.260Z,0.87
2024-02-22T23:58:30.717Z,0.90
